Time;durP1;ratioP1;P1;durP2;ratioP2;P2;SDS_P1;SDS_P2;PMS_P1;PMS_P2;Temp;Humidity;BMP_temperature;BMP_pressure;BME280_temperature;BME280_humidity;BME280_pressure;Samples;Min_cycle;Max_cycle;Signal;HPM_P1;HPM_P2
2024/02/22 00:06:29;;;;;;;;;;;8.60;99.90;;;;;;6735070;88;20069;-80
2024/02/22 00:16:29;;;;;;;;;;;8.60;99.90;;;;;;6760930;87;20600;-78
2024/02/22 00:26:29;;;;;;;;;;;8.70;99.90;;;;;;6741986;88;20075;-78
2024/02/22 00:36:38;;;;;;;;;;;8.80;99.90;;;;;;6738631;88;20104;-79
2024/02/22 00:56:42;;;;;;;;;;;8.80;99.90;;;;;;6732454;88;20100;-77
2024/02/22 01:06:43;;;;;;;;;;;8.70;99.90;;;;;;6726465;88;20083;-79
2024/02/22 01:16:43;;;;;;;;;;;8.80;99.90;;;;;;6721490;88;20079;-76
2024/02/22 01:26:43;;;;;;;;;;;8.80;99.90;;;;;;6733314;88;20077;-80
2024/02/22 01:36:44;;;;;;;;;;;8.80;99.90;;;;;;6723610;88;20052;-79
2024/02/22 01:46:44;;;;;;;;;;;8.90;99.90;;;;;;6731828;87;20028;-76
2024/02/22 01:56:45;;;;;;;;;;;8.90;99.90;;;;;;6725787;88;20142;-77
2024/02/22 02:06:45;;;;;;;;;;;8.90;99.90;;;;;;6715746;88;20060;-79
2024/02/22 02:16:46;;;;;;;;;;;9.00;99.90;;;;;;6719192;88;20057;-79
2024/02/22 02:26:46;;;;;;;;;;;9.00;99.90;;;;;;6718409;88;20069;-78
2024/02/22 02:36:47;;;;;;;;;;;9.00;99.90;;;;;;6719475;88;20072;-79
2024/02/22 02:46:48;;;;;;;;;;;9.00;99.90;;;;;;6721132;88;20073;-77
2024/02/22 02:56:48;;;;;;;;;;;9.00;99.90;;;;;;6716233;88;20056;-77
2024/02/22 03:06:49;;;;;;;;;;;9.00;99.90;;;;;;6724555;88;20084;-77
2024/02/22 03:16:49;;;;;;;;;;;9.00;99.90;;;;;;6724960;88;20146;-77
2024/02/22 03:26:50;;;;;;;;;;;9.00;99.90;;;;;;6715393;88;20066;-77
2024/02/22 03:36:50;;;;;;;;;;;9.10;99.90;;;;;;6704976;88;20074;-79
2024/02/22 03:46:51;;;;;;;;;;;9.20;99.90;;;;;;6710067;88;20159;-80
2024/02/22 03:56:51;;;;;;;;;;;9.10;99.90;;;;;;6712988;88;20558;-77
2024/02/22 04:06:52;;;;;;;;;;;9.20;99.90;;;;;;6713867;88;20495;-79
2024/02/22 04:16:52;;;;;;;;;;;9.20;99.90;;;;;;6727533;88;20083;-79
2024/02/22 04:26:54;;;;;;;;;;;9.10;99.90;;;;;;6712879;88;20094;-79
2024/02/22 04:36:55;;;;;;;;;;;9.10;99.90;;;;;;6712245;88;20533;-79
2024/02/22 04:46:55;;;;;;;;;;;9.10;99.90;;;;;;6715616;88;20062;-77
2024/02/22 04:56:56;;;;;;;;;;;9.20;99.90;;;;;;6729552;88;20080;-78
2024/02/22 05:06:56;;;;;;;;;;;9.20;99.90;;;;;;6722077;88;20056;-77
2024/02/22 05:16:57;;;;;;;;;;;9.20;99.90;;;;;;6717522;88;20067;-78
2024/02/22 05:26:58;;;;;;;;;;;9.20;99.90;;;;;;6697675;88;20194;-79
2024/02/22 05:36:58;;;;;;;;;;;9.20;99.90;;;;;;6690040;88;20129;-78
2024/02/22 05:46:58;;;;;;;;;;;9.20;99.90;;;;;;6685948;88;20060;-81
2024/02/22 05:57:00;;;;;;;;;;;9.30;99.90;;;;;;6689764;88;20079;-78
2024/02/22 06:07:01;;;;;;;;;;;9.30;99.90;;;;;;6720832;87;20065;-79
2024/02/22 06:17:02;;;;;;;;;;;9.30;99.90;;;;;;6738035;88;20115;-79
2024/02/22 06:27:02;;;;;;;;;;;9.30;99.90;;;;;;6725241;88;20096;-80
2024/02/22 06:37:03;;;;;;;;;;;9.50;99.90;;;;;;6718728;88;20058;-80
2024/02/22 06:47:04;;;;;;;;;;;9.50;99.90;;;;;;6737337;76;20177;-78
2024/02/22 06:57:07;;;;;;;;;;;9.50;99.90;;;;;;6721244;88;20066;-76
2024/02/22 07:07:07;;;;;;;;;;;9.50;99.90;;;;;;6724749;88;20104;-78
2024/02/22 07:17:08;;;;;;;;;;;9.60;99.90;;;;;;6716762;88;20160;-78
2024/02/22 07:27:09;;;;;;;;;;;9.50;99.90;;;;;;6721322;88;20529;-78
2024/02/22 07:37:11;;;;;;;;;;;9.70;99.90;;;;;;6724590;88;20162;-77
2024/02/22 07:47:11;;;;;;;;;;;9.80;99.90;;;;;;6724935;88;20074;-77
2024/02/22 07:57:12;;;;;;;;;;;9.80;99.90;;;;;;6720036;88;20069;-77
2024/02/22 08:07:12;;;;;;;;;;;9.70;99.90;;;;;;6724013;88;20059;-78
2024/02/22 08:17:16;;;;;;;;;;;9.80;99.90;;;;;;6730476;88;20079;-78
2024/02/22 08:27:16;;;;;;;;;;;10.00;99.90;;;;;;6721603;88;20071;-78
2024/02/22 08:37:17;;;;;;;;;;;10.00;99.90;;;;;;6715390;88;20081;-78
2024/02/22 08:47:18;;;;;;;;;;;10.20;99.90;;;;;;6719714;88;20061;-78
2024/02/22 08:57:18;;;;;;;;;;;10.30;99.90;;;;;;6718823;88;20140;-77
2024/02/22 09:07:19;;;;;;;;;;;10.70;99.90;;;;;;6718446;88;20087;-78
2024/02/22 09:17:19;;;;;;;;;;;10.90;99.90;;;;;;6730772;88;20064;-78
2024/02/22 09:27:20;;;;;;;;;;;11.00;99.90;;;;;;6722864;88;20076;-79
2024/02/22 09:37:21;;;;;;;;;;;11.30;99.90;;;;;;6727524;88;20131;-78
2024/02/22 09:47:22;;;;;;;;;;;11.30;99.90;;;;;;6721863;88;20083;-79
2024/02/22 09:57:23;;;;;;;;;;;11.80;99.90;;;;;;6724801;88;20059;-78
2024/02/22 10:07:24;;;;;;;;;;;11.90;99.90;;;;;;6735439;88;20059;-80
2024/02/22 10:17:27;;;;;;;;;;;11.80;99.90;;;;;;6728206;88;20066;-77
2024/02/22 10:27:27;;;;;;;;;;;12.10;99.90;;;;;;6723493;88;20413;-77
2024/02/22 10:37:28;;;;;;;;;;;12.50;99.90;;;;;;6724556;88;20083;-77
2024/02/22 10:47:29;;;;;;;;;;;12.90;99.90;;;;;;6718834;88;21110;-77
2024/02/22 10:57:30;;;;;;;;;;;13.20;99.90;;;;;;6724730;88;20278;-77
2024/02/22 11:07:32;;;;;;;;;;;13.40;99.90;;;;;;6723866;88;20122;-78
2024/02/22 11:17:32;;;;;;;;;;;13.40;99.90;;;;;;6722498;88;20063;-78
2024/02/22 11:27:33;;;;;;;;;;;13.50;99.90;;;;;;6724194;88;20072;-77
2024/02/22 11:37:33;;;;;;;;;;;13.80;99.90;;;;;;6723807;88;20067;-78
2024/02/22 11:47:36;;;;;;;;;;;13.80;99.90;;;;;;6725654;88;20149;-77
2024/02/22 11:57:36;;;;;;;;;;;13.90;99.90;;;;;;6723217;88;20063;-78
2024/02/22 12:07:37;;;;;;;;;;;13.90;99.90;;;;;;6723787;88;20141;-77
2024/02/22 12:17:38;;;;;;;;;;;14.00;99.90;;;;;;6727040;88;20103;-77
2024/02/22 12:27:39;;;;;;;;;;;14.40;99.90;;;;;;6723031;88;20191;-78
2024/02/22 12:37:40;;;;;;;;;;;14.50;99.90;;;;;;6727849;88;20072;-78
2024/02/22 12:57:43;;;;;;;;;;;14.50;99.90;;;;;;6727006;88;21515;-77
2024/02/22 13:07:44;;;;;;;;;;;14.40;99.90;;;;;;6706791;88;20135;-78
2024/02/22 13:17:44;;;;;;;;;;;14.30;99.90;;;;;;6709206;88;20676;-77
2024/02/22 13:27:46;;;;;;;;;;;14.10;99.90;;;;;;6723989;88;20060;-77
2024/02/22 13:37:46;;;;;;;;;;;14.00;99.90;;;;;;6718720;88;20206;-77
2024/02/22 13:47:47;;;;;;;;;;;14.00;99.90;;;;;;6711810;88;20066;-77
2024/02/22 13:57:48;;;;;;;;;;;13.80;99.90;;;;;;6717955;88;20209;-78
2024/02/22 14:07:51;;;;;;;;;;;13.60;99.90;;;;;;6715873;88;20063;-78
2024/02/22 14:17:52;;;;;;;;;;;13.40;99.90;;;;;;6720236;88;20047;-78
2024/02/22 14:27:52;;;;;;;;;;;13.10;99.90;;;;;;6726790;88;20093;-79
2024/02/22 14:37:53;;;;;;;;;;;12.90;99.90;;;;;;6713657;88;20111;-78
2024/02/22 14:47:53;;;;;;;;;;;13.00;99.90;;;;;;6718751;88;20110;-78
2024/02/22 14:57:54;;;;;;;;;;;12.90;99.90;;;;;;6720719;88;20528;-78
2024/02/22 15:07:55;;;;;;;;;;;12.70;99.90;;;;;;6725826;88;20117;-79
2024/02/22 15:17:55;;;;;;;;;;;12.60;99.90;;;;;;6716511;88;20117;-77
2024/02/22 15:27:55;;;;;;;;;;;12.90;99.90;;;;;;6720766;88;20706;-77
2024/02/22 15:37:56;;;;;;;;;;;12.80;99.90;;;;;;6719325;88;20518;-77
2024/02/22 15:47:57;;;;;;;;;;;13.00;99.90;;;;;;6710626;88;20231;-77
2024/02/22 15:57:57;;;;;;;;;;;13.00;99.90;;;;;;6716452;88;20079;-77
2024/02/22 16:07:58;;;;;;;;;;;13.00;99.90;;;;;;6720006;88;20082;-77
2024/02/22 16:17:58;;;;;;;;;;;13.20;99.90;;;;;;6715434;88;20242;-77
2024/02/22 16:27:59;;;;;;;;;;;13.20;99.90;;;;;;6713950;88;20810;-77
2024/02/22 16:37:59;;;;;;;;;;;13.10;99.90;;;;;;6714354;88;20054;-75
2024/02/22 16:48:00;;;;;;;;;;;13.00;99.90;;;;;;6716237;88;20189;-76
2024/02/22 16:58:00;;;;;;;;;;;13.10;99.90;;;;;;6721215;88;20069;-78
2024/02/22 17:08:01;;;;;;;;;;;13.20;99.90;;;;;;6729882;88;20076;-79
2024/02/22 17:18:03;;;;;;;;;;;13.10;99.90;;;;;;6725554;88;20058;-78
2024/02/22 17:28:04;;;;;;;;;;;12.70;99.90;;;;;;6722187;88;20082;-77
2024/02/22 17:38:06;;;;;;;;;;;12.50;99.90;;;;;;6725086;88;20082;-77
2024/02/22 17:48:07;;;;;;;;;;;12.50;99.90;;;;;;6719882;88;20072;-79
2024/02/22 17:58:09;;;;;;;;;;;12.40;99.90;;;;;;6705270;88;20082;-77
2024/02/22 18:08:10;;;;;;;;;;;12.40;99.90;;;;;;6705651;88;20062;-78
2024/02/22 18:18:10;;;;;;;;;;;12.30;99.90;;;;;;6709625;88;20538;-78
2024/02/22 18:28:11;;;;;;;;;;;12.30;99.90;;;;;;6724103;88;20112;-78
2024/02/22 18:38:13;;;;;;;;;;;12.60;99.90;;;;;;6722316;88;20135;-79
2024/02/22 18:48:14;;;;;;;;;;;12.90;99.90;;;;;;6720990;77;20190;-79
2024/02/22 18:58:15;;;;;;;;;;;12.70;99.90;;;;;;6731795;88;20585;-79
2024/02/22 19:08:15;;;;;;;;;;;12.70;99.90;;;;;;6734952;88;20124;-77
2024/02/22 19:18:16;;;;;;;;;;;12.50;99.90;;;;;;6732801;88;20087;-80
2024/02/22 19:28:18;;;;;;;;;;;12.40;99.90;;;;;;6729642;88;20081;-78
2024/02/22 19:38:20;;;;;;;;;;;10.80;99.90;;;;;;6739853;88;20543;-78
2024/02/22 19:48:20;;;;;;;;;;;10.30;99.90;;;;;;6728910;88;20055;-78
2024/02/22 19:58:21;;;;;;;;;;;10.20;99.90;;;;;;6735443;88;20077;-78
2024/02/22 20:08:22;;;;;;;;;;;10.10;99.90;;;;;;6731484;88;20070;-78
2024/02/22 20:18:23;;;;;;;;;;;10.00;99.90;;;;;;6728926;88;20088;-78
2024/02/22 20:28:24;;;;;;;;;;;10.00;99.90;;;;;;6728834;88;20080;-77
2024/02/22 20:38:26;;;;;;;;;;;9.90;99.90;;;;;;6728324;88;20536;-79
2024/02/22 20:48:27;;;;;;;;;;;9.90;99.90;;;;;;6720196;88;20084;-79
2024/02/22 20:58:28;;;;;;;;;;;9.70;99.90;;;;;;6724733;88;20066;-78
2024/02/22 21:08:29;;;;;;;;;;;9.70;99.90;;;;;;6728892;88;20092;-78
2024/02/22 21:18:29;;;;;;;;;;;9.70;99.90;;;;;;6740569;88;20059;-79
2024/02/22 21:28:30;;;;;;;;;;;9.40;99.90;;;;;;6727549;88;20068;-79
2024/02/22 21:38:33;;;;;;;;;;;9.30;99.90;;;;;;6730502;88;20055;-80
2024/02/22 21:48:34;;;;;;;;;;;9.30;99.90;;;;;;6731024;88;20081;-78
2024/02/22 21:58:35;;;;;;;;;;;9.20;99.90;;;;;;6734796;88;20121;-78
2024/02/22 22:08:36;;;;;;;;;;;9.10;99.90;;;;;;6730313;88;20086;-79
2024/02/22 22:18:36;;;;;;;;;;;9.00;99.90;;;;;;6730765;88;20238;-78
2024/02/22 22:28:37;;;;;;;;;;;8.90;99.90;;;;;;6726754;88;20117;-78
2024/02/22 22:38:38;;;;;;;;;;;8.80;99.90;;;;;;6728881;88;20062;-78
2024/02/22 22:48:38;;;;;;;;;;;8.10;99.90;;;;;;6725064;88;20067;-78
2024/02/22 22:58:38;;;;;;;;;;;6.60;99.90;;;;;;6730877;88;20051;-78
2024/02/22 23:08:39;;;;;;;;;;;6.20;99.90;;;;;;6739175;88;20064;-78
2024/02/22 23:18:40;;;;;;;;;;;6.20;99.90;;;;;;6726375;88;20088;-78
2024/02/22 23:28:41;;;;;;;;;;;6.40;99.90;;;;;;6730184;88;20113;-78
2024/02/22 23:38:41;;;;;;;;;;;6.30;99.90;;;;;;6731805;88;20502;-79
2024/02/22 23:48:42;;;;;;;;;;;6.40;99.90;;;;;;6720225;88;20063;-78
2024/02/22 23:58:42;;;;;;;;;;;6.20;99.90;;;;;;6727957;88;20057;-78
